sensor_id;sensor_type;location;lat;lon;timestamp;temperature;humidity
27266;DHT22;14766;51.380;13.762;2023-03-20T00:02:21;15.20;61.70
27266;DHT22;14766;51.380;13.762;2023-03-20T00:04:49;15.10;62.20
27266;DHT22;14766;51.380;13.762;2023-03-20T00:07:17;15.10;61.80
27266;DHT22;14766;51.380;13.762;2023-03-20T00:09:44;15.10;62.10
27266;DHT22;14766;51.380;13.762;2023-03-20T00:12:20;15.10;62.90
27266;DHT22;14766;51.380;13.762;2023-03-20T00:14:49;15.10;62.20
27266;DHT22;14766;51.380;13.762;2023-03-20T00:17:19;15.00;62.20
27266;DHT22;14766;51.380;13.762;2023-03-20T00:19:46;15.00;62.20
27266;DHT22;14766;51.380;13.762;2023-03-20T00:22:13;15.00;62.20
27266;DHT22;14766;51.380;13.762;2023-03-20T00:24:41;15.00;62.40
27266;DHT22;14766;51.380;13.762;2023-03-20T00:27:14;15.00;62.60
27266;DHT22;14766;51.380;13.762;2023-03-20T00:29:41;15.00;62.40
27266;DHT22;14766;51.380;13.762;2023-03-20T00:32:13;15.00;62.30
27266;DHT22;14766;51.380;13.762;2023-03-20T00:34:41;15.00;62.40
27266;DHT22;14766;51.380;13.762;2023-03-20T00:37:11;14.90;62.60
27266;DHT22;14766;51.380;13.762;2023-03-20T00:39:40;14.90;62.50
27266;DHT22;14766;51.380;13.762;2023-03-20T00:42:16;14.90;62.30
27266;DHT22;14766;51.380;13.762;2023-03-20T00:44:54;14.90;62.40
27266;DHT22;14766;51.380;13.762;2023-03-20T00:47:25;14.90;62.50
27266;DHT22;14766;51.380;13.762;2023-03-20T00:49:53;14.90;62.20
27266;DHT22;14766;51.380;13.762;2023-03-20T00:52:23;14.90;62.60
27266;DHT22;14766;51.380;13.762;2023-03-20T00:54:51;14.90;62.40
27266;DHT22;14766;51.380;13.762;2023-03-20T00:57:22;14.90;62.10
27266;DHT22;14766;51.380;13.762;2023-03-20T00:59:51;14.90;62.10
27266;DHT22;14766;51.380;13.762;2023-03-20T01:02:20;14.90;63.30
27266;DHT22;14766;51.380;13.762;2023-03-20T01:04:47;15.00;62.40
27266;DHT22;14766;51.380;13.762;2023-03-20T01:07:15;15.00;62.40
27266;DHT22;14766;51.380;13.762;2023-03-20T01:09:42;14.90;61.90
27266;DHT22;14766;51.380;13.762;2023-03-20T01:12:12;14.90;61.80
27266;DHT22;14766;51.380;13.762;2023-03-20T01:14:41;14.90;61.90
27266;DHT22;14766;51.380;13.762;2023-03-20T01:17:17;14.90;61.70
27266;DHT22;14766;51.380;13.762;2023-03-20T01:19:45;14.90;61.80
27266;DHT22;14766;51.380;13.762;2023-03-20T01:22:12;14.90;61.60
27266;DHT22;14766;51.380;13.762;2023-03-20T01:24:46;14.90;61.60
27266;DHT22;14766;51.380;13.762;2023-03-20T01:27:18;14.90;61.50
27266;DHT22;14766;51.380;13.762;2023-03-20T01:29:46;14.80;61.60
27266;DHT22;14766;51.380;13.762;2023-03-20T01:32:16;14.80;61.80
27266;DHT22;14766;51.380;13.762;2023-03-20T01:34:47;14.80;61.90
27266;DHT22;14766;51.380;13.762;2023-03-20T01:37:26;14.70;61.70
27266;DHT22;14766;51.380;13.762;2023-03-20T01:39:59;14.70;61.80
27266;DHT22;14766;51.380;13.762;2023-03-20T01:42:31;14.70;61.80
27266;DHT22;14766;51.380;13.762;2023-03-20T01:44:59;14.70;61.90
27266;DHT22;14766;51.380;13.762;2023-03-20T01:47:27;14.60;62.00
27266;DHT22;14766;51.380;13.762;2023-03-20T01:50:17;14.60;62.10
27266;DHT22;14766;51.380;13.762;2023-03-20T01:52:47;14.50;61.90
27266;DHT22;14766;51.380;13.762;2023-03-20T01:55:17;14.50;62.10
27266;DHT22;14766;51.380;13.762;2023-03-20T01:57:52;14.50;62.50
27266;DHT22;14766;51.380;13.762;2023-03-20T02:00:20;14.50;62.50
27266;DHT22;14766;51.380;13.762;2023-03-20T02:02:49;14.40;62.20
27266;DHT22;14766;51.380;13.762;2023-03-20T02:05:37;14.40;62.30
27266;DHT22;14766;51.380;13.762;2023-03-20T02:10:46;14.40;62.40
27266;DHT22;14766;51.380;13.762;2023-03-20T02:13:22;14.40;62.20
27266;DHT22;14766;51.380;13.762;2023-03-20T02:16:04;14.50;62.30
27266;DHT22;14766;51.380;13.762;2023-03-20T02:18:52;14.40;62.40
27266;DHT22;14766;51.380;13.762;2023-03-20T02:51:41;14.40;62.60
27266;DHT22;14766;51.380;13.762;2023-03-20T02:59:50;14.40;62.20
27266;DHT22;14766;51.380;13.762;2023-03-20T03:02:41;14.40;62.40
27266;DHT22;14766;51.380;13.762;2023-03-20T03:05:14;14.40;62.50
27266;DHT22;14766;51.380;13.762;2023-03-20T03:07:44;14.40;62.50
27266;DHT22;14766;51.380;13.762;2023-03-20T03:10:31;14.40;62.50
27266;DHT22;14766;51.380;13.762;2023-03-20T03:13:00;14.40;62.50
27266;DHT22;14766;51.380;13.762;2023-03-20T03:15:38;14.40;62.50
27266;DHT22;14766;51.380;13.762;2023-03-20T03:18:12;14.40;63.40
27266;DHT22;14766;51.380;13.762;2023-03-20T03:20:42;14.30;62.40
27266;DHT22;14766;51.380;13.762;2023-03-20T03:23:19;14.30;62.30
27266;DHT22;14766;51.380;13.762;2023-03-20T03:25:49;14.30;62.30
27266;DHT22;14766;51.380;13.762;2023-03-20T03:28:34;14.30;62.30
27266;DHT22;14766;51.380;13.762;2023-03-20T03:31:06;14.30;62.40
27266;DHT22;14766;51.380;13.762;2023-03-20T03:33:38;14.30;62.20
27266;DHT22;14766;51.380;13.762;2023-03-20T03:38:41;14.30;62.20
27266;DHT22;14766;51.380;13.762;2023-03-20T03:41:29;14.30;62.30
27266;DHT22;14766;51.380;13.762;2023-03-20T03:49:08;14.20;62.00
27266;DHT22;14766;51.380;13.762;2023-03-20T03:51:41;14.20;62.40
27266;DHT22;14766;51.380;13.762;2023-03-20T03:54:16;14.10;62.30
27266;DHT22;14766;51.380;13.762;2023-03-20T03:56:56;14.10;63.00
27266;DHT22;14766;51.380;13.762;2023-03-20T03:59:39;14.10;63.50
27266;DHT22;14766;51.380;13.762;2023-03-20T04:02:08;14.10;63.10
27266;DHT22;14766;51.380;13.762;2023-03-20T04:04:38;14.10;63.10
27266;DHT22;14766;51.380;13.762;2023-03-20T04:07:08;14.00;63.00
27266;DHT22;14766;51.380;13.762;2023-03-20T04:09:35;14.10;62.90
27266;DHT22;14766;51.380;13.762;2023-03-20T04:12:02;14.10;63.40
27266;DHT22;14766;51.380;13.762;2023-03-20T04:14:31;14.10;63.50
27266;DHT22;14766;51.380;13.762;2023-03-20T04:16:59;14.10;63.40
27266;DHT22;14766;51.380;13.762;2023-03-20T04:19:27;14.10;63.40
27266;DHT22;14766;51.380;13.762;2023-03-20T04:21:54;14.10;64.00
27266;DHT22;14766;51.380;13.762;2023-03-20T04:24:21;14.10;63.80
27266;DHT22;14766;51.380;13.762;2023-03-20T04:26:49;14.10;63.90
27266;DHT22;14766;51.380;13.762;2023-03-20T04:29:17;14.10;64.00
27266;DHT22;14766;51.380;13.762;2023-03-20T04:31:54;14.10;63.80
27266;DHT22;14766;51.380;13.762;2023-03-20T04:34:43;14.10;63.60
27266;DHT22;14766;51.380;13.762;2023-03-20T04:37:49;14.10;64.00
27266;DHT22;14766;51.380;13.762;2023-03-20T04:40:17;14.10;63.80
27266;DHT22;14766;51.380;13.762;2023-03-20T04:42:45;14.10;63.70
27266;DHT22;14766;51.380;13.762;2023-03-20T04:45:12;14.10;64.00
27266;DHT22;14766;51.380;13.762;2023-03-20T04:47:40;14.10;63.80
27266;DHT22;14766;51.380;13.762;2023-03-20T04:50:09;14.10;64.30
27266;DHT22;14766;51.380;13.762;2023-03-20T04:52:36;14.10;64.30
27266;DHT22;14766;51.380;13.762;2023-03-20T04:55:05;14.10;64.50
27266;DHT22;14766;51.380;13.762;2023-03-20T04:57:33;14.00;64.50
27266;DHT22;14766;51.380;13.762;2023-03-20T05:00:00;14.00;65.70
27266;DHT22;14766;51.380;13.762;2023-03-20T05:02:28;14.00;65.10
27266;DHT22;14766;51.380;13.762;2023-03-20T05:04:55;14.00;65.20
27266;DHT22;14766;51.380;13.762;2023-03-20T05:07:24;14.00;65.30
27266;DHT22;14766;51.380;13.762;2023-03-20T05:09:59;13.90;65.30
27266;DHT22;14766;51.380;13.762;2023-03-20T05:12:30;13.90;65.30
27266;DHT22;14766;51.380;13.762;2023-03-20T05:15:17;13.90;65.20
27266;DHT22;14766;51.380;13.762;2023-03-20T05:18:07;13.90;65.10
27266;DHT22;14766;51.380;13.762;2023-03-20T05:20:50;13.90;65.20
27266;DHT22;14766;51.380;13.762;2023-03-20T05:23:36;13.90;65.40
27266;DHT22;14766;51.380;13.762;2023-03-20T05:26:37;13.90;66.20
27266;DHT22;14766;51.380;13.762;2023-03-20T05:29:38;13.90;65.30
27266;DHT22;14766;51.380;13.762;2023-03-20T05:32:06;13.90;65.10
27266;DHT22;14766;51.380;13.762;2023-03-20T05:34:51;14.00;65.00
27266;DHT22;14766;51.380;13.762;2023-03-20T05:37:30;13.90;65.20
27266;DHT22;14766;51.380;13.762;2023-03-20T05:40:06;13.90;65.20
27266;DHT22;14766;51.380;13.762;2023-03-20T05:42:52;13.90;65.00
27266;DHT22;14766;51.380;13.762;2023-03-20T05:45:38;13.90;65.00
27266;DHT22;14766;51.380;13.762;2023-03-20T05:48:27;13.90;65.00
27266;DHT22;14766;51.380;13.762;2023-03-20T05:51:12;14.00;64.70
27266;DHT22;14766;51.380;13.762;2023-03-20T05:53:50;14.00;64.60
27266;DHT22;14766;51.380;13.762;2023-03-20T05:56:46;14.00;64.90
27266;DHT22;14766;51.380;13.762;2023-03-20T05:59:32;14.00;64.70
27266;DHT22;14766;51.380;13.762;2023-03-20T06:02:14;14.00;64.70
27266;DHT22;14766;51.380;13.762;2023-03-20T06:04:49;14.10;64.70
27266;DHT22;14766;51.380;13.762;2023-03-20T06:07:26;14.10;64.90
27266;DHT22;14766;51.380;13.762;2023-03-20T06:10:03;14.10;64.90
27266;DHT22;14766;51.380;13.762;2023-03-20T06:12:31;14.10;65.00
27266;DHT22;14766;51.380;13.762;2023-03-20T06:14:58;14.10;65.00
27266;DHT22;14766;51.380;13.762;2023-03-20T06:17:29;14.10;65.10
27266;DHT22;14766;51.380;13.762;2023-03-20T06:20:01;14.10;64.90
27266;DHT22;14766;51.380;13.762;2023-03-20T06:22:29;14.10;64.90
27266;DHT22;14766;51.380;13.762;2023-03-20T06:24:56;14.10;64.70
27266;DHT22;14766;51.380;13.762;2023-03-20T06:27:29;14.10;64.90
27266;DHT22;14766;51.380;13.762;2023-03-20T06:29:57;14.10;64.90
27266;DHT22;14766;51.380;13.762;2023-03-20T06:32:29;14.10;64.90
27266;DHT22;14766;51.380;13.762;2023-03-20T06:34:58;14.10;64.90
27266;DHT22;14766;51.380;13.762;2023-03-20T06:37:27;14.10;65.00
27266;DHT22;14766;51.380;13.762;2023-03-20T06:40:02;14.20;65.10
27266;DHT22;14766;51.380;13.762;2023-03-20T06:42:32;14.20;65.00
27266;DHT22;14766;51.380;13.762;2023-03-20T06:45:00;14.20;65.10
27266;DHT22;14766;51.380;13.762;2023-03-20T06:47:49;14.20;64.80
27266;DHT22;14766;51.380;13.762;2023-03-20T06:50:16;14.20;65.10
27266;DHT22;14766;51.380;13.762;2023-03-20T06:52:43;14.20;65.10
27266;DHT22;14766;51.380;13.762;2023-03-20T06:55:29;14.20;65.10
27266;DHT22;14766;51.380;13.762;2023-03-20T06:57:57;14.30;65.20
27266;DHT22;14766;51.380;13.762;2023-03-20T07:00:24;14.30;65.20
27266;DHT22;14766;51.380;13.762;2023-03-20T07:02:52;14.30;65.00
27266;DHT22;14766;51.380;13.762;2023-03-20T07:05:21;14.30;65.10
27266;DHT22;14766;51.380;13.762;2023-03-20T07:07:49;14.30;65.20
27266;DHT22;14766;51.380;13.762;2023-03-20T07:10:16;14.30;65.20
27266;DHT22;14766;51.380;13.762;2023-03-20T07:12:48;14.30;65.20
27266;DHT22;14766;51.380;13.762;2023-03-20T07:15:17;14.40;65.30
27266;DHT22;14766;51.380;13.762;2023-03-20T07:17:45;14.40;65.20
27266;DHT22;14766;51.380;13.762;2023-03-20T07:20:13;14.40;65.40
27266;DHT22;14766;51.380;13.762;2023-03-20T07:22:41;14.40;65.50
27266;DHT22;14766;51.380;13.762;2023-03-20T07:25:16;14.40;65.50
27266;DHT22;14766;51.380;13.762;2023-03-20T07:27:53;14.40;65.40
27266;DHT22;14766;51.380;13.762;2023-03-20T07:30:22;14.40;65.40
27266;DHT22;14766;51.380;13.762;2023-03-20T07:32:50;14.50;65.50
27266;DHT22;14766;51.380;13.762;2023-03-20T07:35:18;14.50;65.60
27266;DHT22;14766;51.380;13.762;2023-03-20T07:37:46;14.60;65.50
27266;DHT22;14766;51.380;13.762;2023-03-20T07:40:14;14.60;65.50
27266;DHT22;14766;51.380;13.762;2023-03-20T07:42:52;14.60;65.50
27266;DHT22;14766;51.380;13.762;2023-03-20T07:45:38;14.60;66.10
27266;DHT22;14766;51.380;13.762;2023-03-20T07:48:06;14.60;66.60
27266;DHT22;14766;51.380;13.762;2023-03-20T07:50:33;14.60;66.00
27266;DHT22;14766;51.380;13.762;2023-03-20T07:53:01;14.70;66.00
27266;DHT22;14766;51.380;13.762;2023-03-20T07:55:29;14.70;66.50
27266;DHT22;14766;51.380;13.762;2023-03-20T07:57:56;14.70;66.70
27266;DHT22;14766;51.380;13.762;2023-03-20T08:00:24;14.70;67.00
27266;DHT22;14766;51.380;13.762;2023-03-20T08:02:54;14.70;66.60
27266;DHT22;14766;51.380;13.762;2023-03-20T08:05:23;14.70;66.90
27266;DHT22;14766;51.380;13.762;2023-03-20T08:07:51;14.80;66.90
27266;DHT22;14766;51.380;13.762;2023-03-20T08:10:18;14.80;66.80
27266;DHT22;14766;51.380;13.762;2023-03-20T08:12:45;14.80;66.90
27266;DHT22;14766;51.380;13.762;2023-03-20T08:15:12;14.80;66.80
27266;DHT22;14766;51.380;13.762;2023-03-20T08:17:44;14.80;66.90
27266;DHT22;14766;51.380;13.762;2023-03-20T08:20:13;14.90;66.80
27266;DHT22;14766;51.380;13.762;2023-03-20T08:22:43;14.90;66.90
27266;DHT22;14766;51.380;13.762;2023-03-20T08:25:10;14.90;67.10
27266;DHT22;14766;51.380;13.762;2023-03-20T08:27:38;14.90;67.00
27266;DHT22;14766;51.380;13.762;2023-03-20T08:30:05;15.00;67.10
27266;DHT22;14766;51.380;13.762;2023-03-20T08:32:33;15.00;67.00
27266;DHT22;14766;51.380;13.762;2023-03-20T08:35:01;15.10;67.20
27266;DHT22;14766;51.380;13.762;2023-03-20T08:37:30;15.10;67.50
27266;DHT22;14766;51.380;13.762;2023-03-20T08:39:57;15.20;67.40
27266;DHT22;14766;51.380;13.762;2023-03-20T08:42:24;15.30;67.80
27266;DHT22;14766;51.380;13.762;2023-03-20T08:44:51;15.30;67.50
27266;DHT22;14766;51.380;13.762;2023-03-20T08:47:18;15.40;67.50
27266;DHT22;14766;51.380;13.762;2023-03-20T08:49:46;15.50;67.50
27266;DHT22;14766;51.380;13.762;2023-03-20T08:52:13;15.60;67.30
27266;DHT22;14766;51.380;13.762;2023-03-20T08:54:41;15.70;67.20
27266;DHT22;14766;51.380;13.762;2023-03-20T08:57:08;15.80;67.00
27266;DHT22;14766;51.380;13.762;2023-03-20T08:59:35;16.00;66.70
27266;DHT22;14766;51.380;13.762;2023-03-20T09:02:02;16.10;66.60
27266;DHT22;14766;51.380;13.762;2023-03-20T09:04:29;16.20;66.20
27266;DHT22;14766;51.380;13.762;2023-03-20T09:06:57;16.30;65.80
27266;DHT22;14766;51.380;13.762;2023-03-20T09:09:24;16.40;65.40
27266;DHT22;14766;51.380;13.762;2023-03-20T09:11:56;16.40;65.00
27266;DHT22;14766;51.380;13.762;2023-03-20T09:14:23;16.50;64.90
27266;DHT22;14766;51.380;13.762;2023-03-20T09:16:50;16.50;64.30
27266;DHT22;14766;51.380;13.762;2023-03-20T09:19:18;16.50;64.10
27266;DHT22;14766;51.380;13.762;2023-03-20T09:21:46;16.50;64.20
27266;DHT22;14766;51.380;13.762;2023-03-20T09:24:13;16.50;63.90
27266;DHT22;14766;51.380;13.762;2023-03-20T09:26:41;16.40;63.70
27266;DHT22;14766;51.380;13.762;2023-03-20T09:29:08;16.30;63.90
27266;DHT22;14766;51.380;13.762;2023-03-20T09:31:36;16.30;64.20
27266;DHT22;14766;51.380;13.762;2023-03-20T09:34:03;16.20;64.30
27266;DHT22;14766;51.380;13.762;2023-03-20T09:36:30;16.10;64.50
27266;DHT22;14766;51.380;13.762;2023-03-20T09:38:59;16.00;64.50
27266;DHT22;14766;51.380;13.762;2023-03-20T09:41:29;16.00;64.80
27266;DHT22;14766;51.380;13.762;2023-03-20T09:44:33;15.90;65.00
27266;DHT22;14766;51.380;13.762;2023-03-20T09:47:08;15.80;65.10
27266;DHT22;14766;51.380;13.762;2023-03-20T09:49:50;15.80;65.30
27266;DHT22;14766;51.380;13.762;2023-03-20T09:52:44;15.70;65.30
27266;DHT22;14766;51.380;13.762;2023-03-20T09:55:16;15.60;65.50
27266;DHT22;14766;51.380;13.762;2023-03-20T09:57:49;15.60;65.50
27266;DHT22;14766;51.380;13.762;2023-03-20T10:00:21;15.50;66.00
27266;DHT22;14766;51.380;13.762;2023-03-20T10:05:35;15.40;67.20
27266;DHT22;14766;51.380;13.762;2023-03-20T10:08:06;15.40;67.80
27266;DHT22;14766;51.380;13.762;2023-03-20T10:11:33;15.40;67.80
27266;DHT22;14766;51.380;13.762;2023-03-20T10:17:35;15.40;69.60
27266;DHT22;14766;51.380;13.762;2023-03-20T10:20:24;15.50;69.10
27266;DHT22;14766;51.380;13.762;2023-03-20T10:22:58;15.50;69.10
27266;DHT22;14766;51.380;13.762;2023-03-20T10:25:31;15.50;69.10
27266;DHT22;14766;51.380;13.762;2023-03-20T10:28:04;15.50;69.10
27266;DHT22;14766;51.380;13.762;2023-03-20T10:33:36;15.50;69.10
27266;DHT22;14766;51.380;13.762;2023-03-20T10:38:57;15.50;69.00
27266;DHT22;14766;51.380;13.762;2023-03-20T10:41:34;15.50;68.80
27266;DHT22;14766;51.380;13.762;2023-03-20T10:44:02;15.60;68.80
27266;DHT22;14766;51.380;13.762;2023-03-20T10:46:32;15.60;68.80
27266;DHT22;14766;51.380;13.762;2023-03-20T10:49:14;15.60;68.80
27266;DHT22;14766;51.380;13.762;2023-03-20T10:51:52;15.50;68.70
27266;DHT22;14766;51.380;13.762;2023-03-20T10:54:22;15.50;68.90
27266;DHT22;14766;51.380;13.762;2023-03-20T10:56:52;15.50;69.90
27266;DHT22;14766;51.380;13.762;2023-03-20T10:59:51;15.50;68.80
27266;DHT22;14766;51.380;13.762;2023-03-20T11:02:23;15.50;69.00
27266;DHT22;14766;51.380;13.762;2023-03-20T11:04:50;15.50;68.60
27266;DHT22;14766;51.380;13.762;2023-03-20T11:07:27;15.50;68.40
27266;DHT22;14766;51.380;13.762;2023-03-20T11:12:33;15.50;68.40
27266;DHT22;14766;51.380;13.762;2023-03-20T11:17:41;15.60;68.60
27266;DHT22;14766;51.380;13.762;2023-03-20T11:20:12;15.60;68.30
27266;DHT22;14766;51.380;13.762;2023-03-20T11:22:40;15.60;68.00
27266;DHT22;14766;51.380;13.762;2023-03-20T11:25:27;15.60;68.00
27266;DHT22;14766;51.380;13.762;2023-03-20T11:27:55;15.60;68.00
27266;DHT22;14766;51.380;13.762;2023-03-20T11:30:23;15.60;67.80
27266;DHT22;14766;51.380;13.762;2023-03-20T11:32:54;15.60;67.60
27266;DHT22;14766;51.380;13.762;2023-03-20T11:37:54;15.60;67.50
27266;DHT22;14766;51.380;13.762;2023-03-20T11:40:32;15.60;67.50
27266;DHT22;14766;51.380;13.762;2023-03-20T11:45:36;15.60;67.30
27266;DHT22;14766;51.380;13.762;2023-03-20T11:48:05;15.60;67.50
27266;DHT22;14766;51.380;13.762;2023-03-20T11:50:35;15.50;67.40
27266;DHT22;14766;51.380;13.762;2023-03-20T11:58:28;15.60;67.50
27266;DHT22;14766;51.380;13.762;2023-03-20T12:00:56;15.60;67.40
27266;DHT22;14766;51.380;13.762;2023-03-20T12:03:45;15.60;67.50
27266;DHT22;14766;51.380;13.762;2023-03-20T12:06:19;15.60;67.30
27266;DHT22;14766;51.380;13.762;2023-03-20T12:09:03;15.60;67.10
27266;DHT22;14766;51.380;13.762;2023-03-20T12:12:02;15.60;66.70
27266;DHT22;14766;51.380;13.762;2023-03-20T12:14:42;15.60;66.50
27266;DHT22;14766;51.380;13.762;2023-03-20T12:19:41;15.60;65.90
27266;DHT22;14766;51.380;13.762;2023-03-20T12:22:34;15.60;65.90
27266;DHT22;14766;51.380;13.762;2023-03-20T12:25:19;15.60;65.90
27266;DHT22;14766;51.380;13.762;2023-03-20T12:27:54;15.60;66.10
27266;DHT22;14766;51.380;13.762;2023-03-20T12:30:29;15.70;66.00
27266;DHT22;14766;51.380;13.762;2023-03-20T12:33:11;15.70;65.80
27266;DHT22;14766;51.380;13.762;2023-03-20T12:35:45;15.70;65.30
27266;DHT22;14766;51.380;13.762;2023-03-20T12:38:26;15.70;65.00
27266;DHT22;14766;51.380;13.762;2023-03-20T13:00:09;15.60;64.80
27266;DHT22;14766;51.380;13.762;2023-03-20T13:05:39;15.60;64.70
27266;DHT22;14766;51.380;13.762;2023-03-20T13:11:22;15.60;64.60
27266;DHT22;14766;51.380;13.762;2023-03-20T13:14:02;15.60;64.40
27266;DHT22;14766;51.380;13.762;2023-03-20T13:16:55;15.60;64.20
27266;DHT22;14766;51.380;13.762;2023-03-20T13:19:31;15.60;64.00
27266;DHT22;14766;51.380;13.762;2023-03-20T13:24:53;15.60;63.80
27266;DHT22;14766;51.380;13.762;2023-03-20T13:30:20;15.60;63.50
27266;DHT22;14766;51.380;13.762;2023-03-20T13:35:49;15.60;63.70
27266;DHT22;14766;51.380;13.762;2023-03-20T13:38:28;15.60;63.50
27266;DHT22;14766;51.380;13.762;2023-03-20T13:41:07;15.60;63.60
27266;DHT22;14766;51.380;13.762;2023-03-20T13:43:49;15.60;64.50
27266;DHT22;14766;51.380;13.762;2023-03-20T13:46:23;15.60;63.70
27266;DHT22;14766;51.380;13.762;2023-03-20T13:48:53;15.60;63.80
27266;DHT22;14766;51.380;13.762;2023-03-20T13:51:30;15.60;63.80
27266;DHT22;14766;51.380;13.762;2023-03-20T14:03:10;15.70;63.60
27266;DHT22;14766;51.380;13.762;2023-03-20T14:05:42;15.70;63.80
27266;DHT22;14766;51.380;13.762;2023-03-20T14:13:51;15.70;64.10
27266;DHT22;14766;51.380;13.762;2023-03-20T14:16:19;15.70;64.10
27266;DHT22;14766;51.380;13.762;2023-03-20T14:18:49;15.70;64.20
27266;DHT22;14766;51.380;13.762;2023-03-20T14:21:30;15.70;64.40
27266;DHT22;14766;51.380;13.762;2023-03-20T14:24:03;15.70;64.60
27266;DHT22;14766;51.380;13.762;2023-03-20T14:26:34;15.70;64.60
27266;DHT22;14766;51.380;13.762;2023-03-20T14:31:39;15.70;64.80
27266;DHT22;14766;51.380;13.762;2023-03-20T14:39:47;15.80;64.50
27266;DHT22;14766;51.380;13.762;2023-03-20T14:48:32;15.70;64.40
27266;DHT22;14766;51.380;13.762;2023-03-20T14:53:35;15.70;64.50
27266;DHT22;14766;51.380;13.762;2023-03-20T14:56:10;15.60;64.50
27266;DHT22;14766;51.380;13.762;2023-03-20T15:01:22;15.60;64.70
27266;DHT22;14766;51.380;13.762;2023-03-20T15:03:55;15.60;64.70
27266;DHT22;14766;51.380;13.762;2023-03-20T15:06:25;15.60;64.70
27266;DHT22;14766;51.380;13.762;2023-03-20T15:08:58;15.60;64.90
27266;DHT22;14766;51.380;13.762;2023-03-20T15:11:27;15.60;64.90
27266;DHT22;14766;51.380;13.762;2023-03-20T15:13:57;15.60;64.90
27266;DHT22;14766;51.380;13.762;2023-03-20T15:16:28;15.60;64.90
27266;DHT22;14766;51.380;13.762;2023-03-20T15:18:57;15.60;64.90
27266;DHT22;14766;51.380;13.762;2023-03-20T15:21:44;15.70;65.00
27266;DHT22;14766;51.380;13.762;2023-03-20T15:24:30;15.70;65.00
27266;DHT22;14766;51.380;13.762;2023-03-20T15:26:59;15.70;64.80
27266;DHT22;14766;51.380;13.762;2023-03-20T15:29:28;15.70;64.70
27266;DHT22;14766;51.380;13.762;2023-03-20T15:31:58;15.70;64.60
27266;DHT22;14766;51.380;13.762;2023-03-20T15:34:41;15.70;64.60
27266;DHT22;14766;51.380;13.762;2023-03-20T15:37:14;15.70;64.50
27266;DHT22;14766;51.380;13.762;2023-03-20T15:39:45;15.60;64.30
27266;DHT22;14766;51.380;13.762;2023-03-20T15:42:15;15.60;64.30
27266;DHT22;14766;51.380;13.762;2023-03-20T15:44:44;15.60;64.50
27266;DHT22;14766;51.380;13.762;2023-03-20T15:50:12;15.60;64.50
27266;DHT22;14766;51.380;13.762;2023-03-20T15:52:45;15.50;64.50
27266;DHT22;14766;51.380;13.762;2023-03-20T15:55:21;15.50;64.40
27266;DHT22;14766;51.380;13.762;2023-03-20T15:57:50;15.50;64.70
27266;DHT22;14766;51.380;13.762;2023-03-20T16:00:35;15.50;64.70
27266;DHT22;14766;51.380;13.762;2023-03-20T16:03:13;15.50;64.80
27266;DHT22;14766;51.380;13.762;2023-03-20T16:05:42;15.40;64.80
27266;DHT22;14766;51.380;13.762;2023-03-20T16:10:52;15.40;64.80
27266;DHT22;14766;51.380;13.762;2023-03-20T16:13:20;15.40;64.80
27266;DHT22;14766;51.380;13.762;2023-03-20T16:15:50;15.40;64.90
27266;DHT22;14766;51.380;13.762;2023-03-20T16:18:18;15.40;64.80
27266;DHT22;14766;51.380;13.762;2023-03-20T16:21:02;15.30;64.80
27266;DHT22;14766;51.380;13.762;2023-03-20T16:23:51;15.30;64.50
27266;DHT22;14766;51.380;13.762;2023-03-20T16:26:20;15.30;64.70
27266;DHT22;14766;51.380;13.762;2023-03-20T16:28:53;15.30;64.50
27266;DHT22;14766;51.380;13.762;2023-03-20T16:31:28;15.30;64.70
27266;DHT22;14766;51.380;13.762;2023-03-20T16:34:00;15.30;64.70
27266;DHT22;14766;51.380;13.762;2023-03-20T16:36:31;15.30;64.70
27266;DHT22;14766;51.380;13.762;2023-03-20T16:39:05;15.30;64.70
27266;DHT22;14766;51.380;13.762;2023-03-20T16:41:34;15.30;64.60
27266;DHT22;14766;51.380;13.762;2023-03-20T16:44:09;15.30;64.60
27266;DHT22;14766;51.380;13.762;2023-03-20T16:51:59;15.20;64.80
27266;DHT22;14766;51.380;13.762;2023-03-20T16:54:34;15.30;64.80
27266;DHT22;14766;51.380;13.762;2023-03-20T16:57:02;15.30;64.70
27266;DHT22;14766;51.380;13.762;2023-03-20T16:59:38;15.20;64.70
27266;DHT22;14766;51.380;13.762;2023-03-20T17:02:22;15.20;64.90
27266;DHT22;14766;51.380;13.762;2023-03-20T17:04:54;15.20;65.00
27266;DHT22;14766;51.380;13.762;2023-03-20T17:07:22;15.20;65.00
27266;DHT22;14766;51.380;13.762;2023-03-20T17:09:58;15.20;65.20
27266;DHT22;14766;51.380;13.762;2023-03-20T17:12:30;15.20;65.10
27266;DHT22;14766;51.380;13.762;2023-03-20T17:14:58;15.20;65.00
27266;DHT22;14766;51.380;13.762;2023-03-20T17:17:25;15.20;65.00
27266;DHT22;14766;51.380;13.762;2023-03-20T17:19:52;15.20;65.10
27266;DHT22;14766;51.380;13.762;2023-03-20T17:22:21;15.20;65.20
27266;DHT22;14766;51.380;13.762;2023-03-20T17:24:49;15.20;65.00
27266;DHT22;14766;51.380;13.762;2023-03-20T17:27:17;15.20;65.10
27266;DHT22;14766;51.380;13.762;2023-03-20T17:29:45;15.20;65.00
27266;DHT22;14766;51.380;13.762;2023-03-20T17:32:15;15.20;65.10
27266;DHT22;14766;51.380;13.762;2023-03-20T17:34:43;15.20;65.10
27266;DHT22;14766;51.380;13.762;2023-03-20T17:37:14;15.20;65.10
27266;DHT22;14766;51.380;13.762;2023-03-20T17:39:41;15.10;65.00
27266;DHT22;14766;51.380;13.762;2023-03-20T17:42:17;15.10;65.10
27266;DHT22;14766;51.380;13.762;2023-03-20T17:44:45;15.10;65.20
27266;DHT22;14766;51.380;13.762;2023-03-20T17:47:18;15.10;65.10
27266;DHT22;14766;51.380;13.762;2023-03-20T17:49:47;15.10;65.20
27266;DHT22;14766;51.380;13.762;2023-03-20T17:52:17;15.10;65.20
27266;DHT22;14766;51.380;13.762;2023-03-20T17:54:45;15.20;65.40
27266;DHT22;14766;51.380;13.762;2023-03-20T17:57:20;15.10;65.30
27266;DHT22;14766;51.380;13.762;2023-03-20T17:59:47;15.10;65.40
27266;DHT22;14766;51.380;13.762;2023-03-20T18:02:16;15.10;65.40
27266;DHT22;14766;51.380;13.762;2023-03-20T18:04:44;15.10;65.50
27266;DHT22;14766;51.380;13.762;2023-03-20T18:07:12;15.10;65.60
27266;DHT22;14766;51.380;13.762;2023-03-20T18:09:40;15.10;65.70
27266;DHT22;14766;51.380;13.762;2023-03-20T18:12:12;15.10;65.90
27266;DHT22;14766;51.380;13.762;2023-03-20T18:14:42;15.10;66.20
27266;DHT22;14766;51.380;13.762;2023-03-20T18:17:14;15.10;66.20
27266;DHT22;14766;51.380;13.762;2023-03-20T18:19:42;15.10;66.60
27266;DHT22;14766;51.380;13.762;2023-03-20T18:22:10;15.10;66.80
27266;DHT22;14766;51.380;13.762;2023-03-20T18:24:37;15.00;66.80
27266;DHT22;14766;51.380;13.762;2023-03-20T18:27:10;15.00;67.00